Hlavní strana
METAR-TAF:

METAR-TAF

Letiště :

Havana, Kuba

zeměpisná šířka: 22-59N, zeměpisná délka: 082-24W, výška: 59 m

Aktuální stav počasí

Zpráva byla vytvořena před 32 minutami, v 12:55 UTC
vítr z různých směrů 2 kt
Teplota 24°C
Vlhkost vzduchu 89%
Tlak 1017 hPa
Viditelnost: 9000 m
Skoro jasno ve výšce 3000 ft

METAR: MUHA 231255Z VRB02KT 9000 FEW030 24/22 Q1017

Čas: 09:27 (13:27 UTC)

Předpověď počasí

Zpráva byla vytvořena před 2 hodinami a 27 minutami, v 11:00 UTC
Předpověď platná od 23 v 12 UTC do 24 v 12 UTC
Východní vítr 5 kt
Viditelnost: 9000 m
Skoro jasno ve výšce 3000 ft

TAF: MUHA 231100Z 2312/2412 09005KT 9000 FEW030

Stav a předpovědi počasí z více než 4 000 letišť (zprávy METAR a TAF).

Červené a žluté tečky na mapě představují dostupné meteorologické stanice.

Když kurzor umístíte na tečku, zobrazí se název stanice.

Pak kliknutím zobrazíte stav a předpověď počasí.

Chcete-li změnit mapu, kliknutím na zelené tlačítko se znaménkem +mapu přiblížíte, kliknutím na zelené tlačítko se znaménkem – mapu oddálíte a kliknutím na zelené šipky přejdete na sousední mapy.


METAR-TAF: